createdAt,value
2022-08-26T00:05:09.293Z,74
2022-08-26T00:15:09.964Z,74
2022-08-26T00:25:10.513Z,75
2022-08-26T00:35:11.082Z,74
2022-08-26T00:45:11.731Z,74
2022-08-26T00:55:11.708Z,75
2022-08-26T01:05:12.404Z,76
2022-08-26T01:15:13.145Z,76
2022-08-26T01:25:13.500Z,75
2022-08-26T01:35:14.082Z,76
2022-08-26T01:55:15.246Z,78
2022-08-26T02:05:15.359Z,79
2022-08-26T02:15:15.917Z,80
2022-08-26T02:25:16.868Z,80
2022-08-26T02:55:18.526Z,78
2022-08-26T03:35:21.901Z,84
2022-08-26T03:45:22.080Z,85
2022-08-26T03:55:23.681Z,86
2022-08-26T04:05:22.915Z,88
2022-08-26T04:15:23.145Z,90
2022-08-26T04:25:24.137Z,91
2022-08-26T04:35:26.083Z,92
2022-08-26T04:45:25.008Z,93
2022-08-26T05:05:26.037Z,93
2022-08-26T05:15:26.920Z,93
2022-08-26T05:25:27.740Z,93
2022-08-26T05:35:27.890Z,92
2022-08-26T05:45:28.768Z,92
2022-08-26T05:55:29.415Z,91
2022-08-26T06:05:29.554Z,90
2022-08-26T06:15:29.720Z,89
2022-08-26T06:25:30.053Z,90
2022-08-26T06:35:30.790Z,89
2022-08-26T06:45:31.208Z,88
2022-08-26T06:55:31.988Z,87
2022-08-26T07:05:32.886Z,87
2022-08-26T07:08:11.265Z,87
2022-08-26T07:15:41.485Z,87
2022-08-26T07:25:41.654Z,87
2022-08-26T07:35:41.981Z,87
2022-08-26T07:55:42.834Z,86
2022-08-26T08:05:43.816Z,85
2022-08-26T08:15:44.782Z,84
2022-08-26T08:25:45.701Z,84
2022-08-26T08:45:47.177Z,83
2022-08-26T08:55:47.880Z,82
2022-08-26T09:05:48.978Z,81
2022-08-26T09:15:49.254Z,80
2022-08-26T09:25:49.895Z,80
2022-08-26T09:35:50.939Z,79
2022-08-26T09:45:52.109Z,81
2022-08-26T09:55:51.570Z,79
2022-08-26T10:05:51.954Z,79
2022-08-26T10:15:52.058Z,79
2022-08-26T10:45:53.762Z,79
2022-08-26T10:55:54.584Z,79
2022-08-26T11:05:55.253Z,79
2022-08-26T11:15:55.897Z,79
2022-08-26T11:25:56.933Z,77
2022-08-26T11:35:57.343Z,78
2022-08-26T11:45:58.423Z,77
2022-08-26T11:55:59.251Z,76
2022-08-26T12:05:59.981Z,76
2022-08-26T12:16:00.615Z,75
2022-08-26T12:26:01.124Z,75
2022-08-26T12:36:01.417Z,76
2022-08-26T12:46:02.256Z,76
2022-08-26T12:56:03.214Z,73
2022-08-26T13:06:03.451Z,74
2022-08-26T13:36:05.595Z,75
2022-08-26T13:46:06.274Z,74
2022-08-26T13:56:10.454Z,74
2022-08-26T14:06:07.318Z,74
2022-08-26T14:16:08.031Z,74
2022-08-26T14:26:08.919Z,74
2022-08-26T14:46:09.853Z,73
2022-08-26T14:56:13.716Z,73
2022-08-26T15:06:10.970Z,74
2022-08-26T15:16:11.906Z,74
2022-08-26T15:26:12.755Z,75
2022-08-26T15:36:12.984Z,75
2022-08-26T15:46:13.192Z,77
2022-08-26T15:56:13.985Z,77
2022-08-26T16:06:14.396Z,77
2022-08-26T16:16:14.961Z,78
2022-08-26T16:26:15.557Z,78
2022-08-26T16:36:16.522Z,79
2022-08-26T16:46:17.297Z,80
2022-08-26T16:56:17.596Z,80
2022-08-26T17:06:18.573Z,79
2022-08-26T17:16:20.473Z,80
2022-08-26T17:26:19.212Z,80
2022-08-26T17:36:19.335Z,79
2022-08-26T17:56:20.574Z,79
2022-08-26T18:06:21.172Z,79
2022-08-26T18:16:21.432Z,79
2022-08-26T18:26:21.869Z,79
2022-08-26T18:36:22.780Z,79
2022-08-26T18:56:24.696Z,79
2022-08-26T19:16:26.420Z,80
2022-08-26T20:16:30.453Z,82
2022-08-26T20:36:32.101Z,85
2022-08-26T20:56:32.794Z,86
2022-08-26T21:16:34.140Z,86
2022-08-26T21:26:35.083Z,88
2022-08-26T22:26:39.085Z,97
2022-08-26T22:36:42.707Z,98
2022-08-26T22:46:39.603Z,98
2022-08-26T22:56:40.660Z,98
2022-08-26T23:16:41.669Z,98
2022-08-26T23:26:42.299Z,98
2022-08-26T23:36:43.249Z,97
2022-08-26T23:56:44.065Z,97
